createdAt,value
2019-03-22T00:01:53.044Z,8.30
2019-03-22T00:04:27.070Z,8.30
2019-03-22T00:06:58.940Z,8.30
2019-03-22T00:09:30.762Z,8.30
2019-03-22T00:12:04.262Z,8.30
2019-03-22T00:14:37.216Z,8.40
2019-03-22T00:17:09.261Z,8.40
2019-03-22T00:19:41.570Z,8.40
2019-03-22T00:22:15.194Z,8.40
2019-03-22T00:24:47.015Z,8.40
2019-03-22T00:27:19.526Z,8.40
2019-03-22T00:29:51.356Z,8.40
2019-03-22T00:32:23.581Z,8.40
2019-03-22T00:34:55.774Z,8.40
2019-03-22T00:37:27.857Z,8.50
2019-03-22T00:39:59.782Z,8.50
2019-03-22T00:42:31.621Z,8.40
2019-03-22T00:45:03.850Z,8.50
2019-03-22T00:47:36.052Z,8.40
2019-03-22T00:50:07.916Z,8.50
2019-03-22T00:52:39.811Z,8.50
2019-03-22T00:55:11.947Z,8.40
2019-03-22T00:57:44.121Z,8.40
2019-03-22T01:00:16.749Z,8.40
2019-03-22T01:02:48.565Z,8.40
2019-03-22T01:05:20.534Z,8.40
2019-03-22T01:07:53.621Z,8.40
2019-03-22T01:10:27.114Z,8.40
2019-03-22T01:12:59.321Z,8.40
2019-03-22T01:15:31.599Z,8.40
2019-03-22T01:18:03.579Z,8.30
2019-03-22T01:20:35.423Z,8.30
2019-03-22T01:23:07.289Z,8.30
2019-03-22T01:25:40.181Z,8.20
2019-03-22T01:28:12.456Z,8.20
2019-03-22T01:30:44.419Z,8.10
2019-03-22T01:33:16.423Z,8.10
2019-03-22T01:35:48.233Z,8.10
2019-03-22T01:38:19.991Z,8.00
2019-03-22T01:40:51.873Z,7.90
2019-03-22T01:43:23.896Z,7.90
2019-03-22T01:45:55.932Z,7.80
2019-03-22T01:48:28.112Z,7.80
2019-03-22T01:51:00.138Z,7.70
2019-03-22T01:53:32.090Z,7.60
2019-03-22T01:56:04.570Z,7.50
2019-03-22T01:58:36.898Z,7.40
2019-03-22T02:01:09.136Z,7.30
2019-03-22T02:03:41.222Z,7.20
2019-03-22T02:06:13.298Z,7.20
2019-03-22T02:08:45.378Z,7.10
2019-03-22T02:11:17.172Z,7.10
2019-03-22T02:13:48.881Z,7.00
2019-03-22T02:16:20.620Z,6.90
2019-03-22T02:18:52.550Z,6.90
2019-03-22T02:21:24.818Z,6.90
2019-03-22T02:23:56.686Z,6.80
2019-03-22T02:26:28.568Z,6.70
2019-03-22T02:29:01.380Z,6.60
2019-03-22T02:31:33.204Z,6.60
2019-03-22T02:34:05.339Z,6.60
2019-03-22T02:36:37.145Z,6.50
2019-03-22T02:39:09.647Z,6.50
2019-03-22T02:41:41.916Z,6.50
2019-03-22T02:44:13.746Z,6.50
2019-03-22T02:46:45.606Z,6.50
2019-03-22T02:49:17.564Z,6.50
2019-03-22T02:51:49.530Z,6.50
2019-03-22T02:54:21.857Z,6.50
2019-03-22T02:56:53.711Z,6.60
2019-03-22T02:59:26.220Z,6.60
2019-03-22T03:01:58.467Z,6.60
2019-03-22T03:04:30.648Z,6.80
2019-03-22T03:07:02.438Z,6.80
2019-03-22T03:09:34.492Z,6.90
2019-03-22T03:12:07.447Z,6.90
2019-03-22T03:14:39.481Z,6.80
2019-03-22T03:17:11.337Z,6.70
2019-03-22T03:19:43.279Z,6.60
2019-03-22T03:22:15.255Z,6.50
2019-03-22T03:24:47.198Z,6.40
2019-03-22T03:27:19.224Z,6.40
2019-03-22T03:29:51.477Z,6.40
2019-03-22T03:32:23.343Z,6.40
2019-03-22T03:34:55.951Z,6.40
2019-03-22T03:37:27.823Z,6.40
2019-03-22T03:40:00.461Z,6.50
2019-03-22T03:42:32.421Z,6.50
2019-03-22T03:45:05.903Z,6.40
2019-03-22T03:47:37.644Z,6.40
2019-03-22T03:50:11.297Z,6.40
2019-03-22T03:52:43.575Z,6.40
2019-03-22T03:55:16.152Z,6.40
2019-03-22T03:57:48.348Z,6.30
2019-03-22T04:00:21.923Z,6.30
2019-03-22T04:02:53.865Z,6.20
2019-03-22T04:05:26.486Z,6.10
2019-03-22T04:07:58.390Z,6.00
2019-03-22T04:10:30.655Z,6.00
2019-03-22T04:13:02.924Z,6.00
2019-03-22T04:15:34.814Z,5.90
2019-03-22T04:18:06.801Z,6.00
2019-03-22T04:20:38.812Z,5.90
2019-03-22T04:23:10.790Z,6.00
2019-03-22T04:25:43.146Z,6.00
2019-03-22T04:28:18.180Z,6.00
2019-03-22T04:30:50.865Z,6.00
2019-03-22T04:33:22.818Z,6.00
2019-03-22T04:35:54.648Z,6.00
2019-03-22T04:38:28.226Z,6.00
2019-03-22T04:41:00.558Z,6.00
2019-03-22T04:43:32.759Z,6.10
2019-03-22T04:46:05.191Z,6.10
2019-03-22T04:48:39.315Z,6.10
2019-03-22T04:51:11.911Z,6.10
2019-03-22T04:53:52.999Z,6.10
2019-03-22T04:56:26.514Z,6.10
2019-03-22T04:59:00.431Z,6.10
2019-03-22T05:01:34.025Z,6.10
2019-03-22T05:04:07.959Z,6.10
2019-03-22T05:06:42.688Z,6.20
2019-03-22T05:09:17.517Z,6.10
2019-03-22T05:11:50.034Z,6.10
2019-03-22T05:14:23.550Z,6.10
2019-03-22T05:16:56.836Z,6.00
2019-03-22T05:19:31.902Z,6.10
2019-03-22T05:22:05.096Z,6.00
2019-03-22T05:24:37.766Z,6.10
2019-03-22T05:27:11.124Z,6.10
2019-03-22T05:29:45.958Z,6.10
2019-03-22T05:32:19.048Z,6.20
2019-03-22T05:34:51.430Z,6.10
2019-03-22T05:37:23.224Z,6.00
2019-03-22T05:39:55.457Z,6.00
2019-03-22T05:42:27.651Z,6.00
2019-03-22T05:44:59.582Z,6.00
2019-03-22T05:47:31.525Z,6.00
2019-03-22T05:50:03.695Z,6.00
2019-03-22T05:52:35.557Z,6.00
2019-03-22T05:55:07.858Z,6.00
2019-03-22T05:57:39.892Z,6.00
2019-03-22T06:00:13.655Z,6.10
2019-03-22T06:02:45.516Z,6.10
2019-03-22T06:05:17.403Z,6.10
2019-03-22T06:07:49.700Z,6.00
2019-03-22T06:10:22.060Z,6.10
2019-03-22T06:12:54.130Z,6.10
2019-03-22T06:15:26.434Z,6.10
2019-03-22T06:17:59.329Z,6.20
2019-03-22T06:20:31.391Z,6.20
2019-03-22T06:23:03.376Z,6.20
2019-03-22T06:25:35.715Z,6.20
2019-03-22T06:28:09.406Z,6.20
2019-03-22T06:30:41.536Z,6.20
2019-03-22T06:33:13.494Z,6.30
2019-03-22T06:35:45.495Z,6.30
2019-03-22T06:38:17.333Z,6.30
2019-03-22T06:40:50.239Z,6.30
2019-03-22T06:43:22.508Z,6.40
2019-03-22T06:45:54.581Z,6.40
2019-03-22T06:48:28.303Z,6.40
2019-03-22T06:51:00.758Z,6.40
2019-03-22T06:53:32.575Z,6.50
2019-03-22T06:56:04.833Z,6.50
2019-03-22T06:58:37.523Z,6.50
2019-03-22T07:01:10.765Z,6.50
2019-03-22T07:03:42.995Z,6.50
2019-03-22T07:06:16.213Z,6.50
2019-03-22T07:08:48.299Z,6.60
2019-03-22T07:11:21.439Z,6.60
2019-03-22T07:13:53.605Z,6.70
2019-03-22T07:16:25.502Z,6.70
2019-03-22T07:18:57.561Z,6.90
2019-03-22T07:21:29.461Z,6.80
2019-03-22T07:24:02.055Z,6.80
2019-03-22T07:26:34.083Z,6.80
2019-03-22T07:29:06.023Z,6.80
2019-03-22T07:31:38.153Z,6.80
2019-03-22T07:34:10.792Z,6.90
2019-03-22T07:36:42.571Z,6.90
2019-03-22T07:39:14.793Z,6.90
2019-03-22T07:41:46.884Z,6.90
2019-03-22T07:44:19.279Z,7.00
2019-03-22T07:46:51.210Z,6.90
2019-03-22T07:49:23.164Z,6.90
2019-03-22T07:51:55.172Z,7.00
2019-03-22T07:54:27.094Z,7.00
2019-03-22T07:56:59.435Z,7.00
2019-03-22T07:59:31.399Z,7.10
2019-03-22T08:02:03.594Z,7.20
2019-03-22T08:04:35.464Z,7.30
2019-03-22T08:07:07.355Z,7.30
2019-03-22T08:09:39.578Z,7.30
2019-03-22T08:12:11.440Z,7.30
2019-03-22T08:14:43.760Z,7.40
2019-03-22T08:17:17.162Z,7.40
2019-03-22T08:19:49.328Z,7.40
2019-03-22T08:22:21.151Z,7.60
2019-03-22T08:24:53.160Z,7.60
2019-03-22T08:27:26.899Z,7.60
2019-03-22T08:29:58.820Z,7.70
2019-03-22T08:32:32.150Z,7.70
2019-03-22T08:35:04.390Z,7.90
2019-03-22T08:37:36.818Z,7.80
2019-03-22T08:40:09.391Z,7.80
2019-03-22T08:42:41.247Z,7.90
2019-03-22T08:45:13.384Z,8.10
2019-03-22T08:47:45.730Z,8.10
2019-03-22T08:50:17.827Z,8.30
2019-03-22T08:52:50.266Z,8.30
2019-03-22T08:55:22.399Z,8.30
2019-03-22T08:57:54.411Z,8.40
2019-03-22T09:00:38.573Z,8.50
2019-03-22T09:03:00.337Z,8.50
2019-03-22T09:05:32.483Z,8.50
2019-03-22T09:08:04.580Z,8.60
2019-03-22T09:10:36.728Z,8.70
2019-03-22T09:13:09.050Z,8.70
2019-03-22T09:15:41.651Z,8.60
2019-03-22T09:18:15.544Z,8.60
2019-03-22T09:20:48.225Z,8.60
2019-03-22T09:23:20.447Z,8.80
2019-03-22T09:25:52.211Z,9.10
2019-03-22T09:28:24.663Z,9.20
2019-03-22T09:31:09.438Z,9.30
2019-03-22T09:33:30.545Z,9.40
2019-03-22T09:36:02.458Z,9.60
2019-03-22T09:38:34.403Z,9.60
2019-03-22T09:41:08.761Z,9.60
2019-03-22T09:43:40.731Z,9.60
2019-03-22T09:46:12.684Z,9.60
2019-03-22T09:48:44.902Z,9.90
2019-03-22T09:51:16.751Z,10.00
2019-03-22T09:53:48.752Z,10.00
2019-03-22T09:56:21.610Z,10.10
2019-03-22T09:58:53.608Z,10.20
2019-03-22T10:01:26.045Z,10.40
2019-03-22T10:03:58.187Z,10.50
2019-03-22T10:06:30.763Z,10.80
2019-03-22T10:09:05.353Z,11.10
2019-03-22T10:11:37.222Z,11.10
2019-03-22T10:14:09.248Z,11.20
2019-03-22T10:16:41.115Z,11.30
2019-03-22T10:19:13.355Z,11.50
2019-03-22T10:21:45.452Z,11.60
2019-03-22T10:24:19.372Z,11.60
2019-03-22T10:26:51.624Z,11.90
2019-03-22T10:29:25.001Z,12.00
2019-03-22T10:31:57.104Z,12.20
2019-03-22T10:34:29.032Z,12.40
2019-03-22T10:37:01.496Z,12.60
2019-03-22T10:39:34.657Z,12.50
2019-03-22T10:42:06.551Z,12.80
2019-03-22T10:44:39.545Z,12.70
2019-03-22T10:47:11.475Z,13.00
2019-03-22T10:49:43.495Z,13.30
2019-03-22T10:52:15.292Z,13.40
2019-03-22T10:54:47.197Z,13.40
2019-03-22T10:57:19.017Z,13.30
2019-03-22T10:59:51.269Z,13.40
2019-03-22T11:02:23.478Z,13.70
2019-03-22T11:04:55.258Z,14.00
2019-03-22T11:07:27.313Z,14.20
2019-03-22T11:10:00.635Z,14.20
2019-03-22T11:12:32.904Z,14.30
2019-03-22T11:15:06.097Z,14.50
2019-03-22T11:17:40.064Z,14.60
2019-03-22T11:20:13.792Z,14.80
2019-03-22T11:22:46.181Z,15.00
2019-03-22T11:25:19.179Z,15.00
2019-03-22T11:27:53.797Z,15.10
2019-03-22T11:30:26.321Z,15.30
2019-03-22T11:32:58.511Z,14.80
2019-03-22T11:35:30.697Z,14.70
2019-03-22T11:38:02.743Z,15.10
2019-03-22T11:40:34.726Z,15.20
2019-03-22T11:43:08.804Z,15.60
2019-03-22T11:45:40.905Z,15.80
2019-03-22T11:48:13.117Z,15.50
2019-03-22T11:50:46.842Z,15.40
2019-03-22T11:53:19.142Z,15.20
2019-03-22T11:55:51.442Z,15.50
2019-03-22T11:58:23.463Z,15.50
2019-03-22T12:00:55.681Z,15.70
2019-03-22T12:03:27.645Z,15.90
2019-03-22T12:06:00.502Z,16.10
2019-03-22T12:08:32.866Z,15.70
2019-03-22T12:11:05.219Z,15.90
2019-03-22T12:13:37.102Z,15.80
2019-03-22T12:16:09.275Z,16.40
2019-03-22T12:18:41.352Z,16.30
2019-03-22T12:21:13.826Z,16.70
2019-03-22T12:23:45.724Z,16.70
2019-03-22T12:26:17.596Z,17.00
2019-03-22T12:28:49.656Z,17.10
2019-03-22T12:31:21.818Z,17.10
2019-03-22T12:33:53.860Z,17.10
2019-03-22T12:36:25.594Z,17.10
2019-03-22T12:38:57.774Z,17.40
2019-03-22T12:41:29.792Z,17.00
2019-03-22T12:44:02.232Z,17.40
2019-03-22T12:46:34.102Z,17.70
2019-03-22T12:49:06.248Z,17.50
2019-03-22T12:51:38.082Z,17.00
2019-03-22T12:54:10.503Z,17.50
2019-03-22T12:56:42.798Z,17.80
2019-03-22T12:59:14.686Z,17.90
2019-03-22T13:01:46.475Z,18.20
2019-03-22T13:04:18.566Z,18.30
2019-03-22T13:06:50.457Z,18.60
2019-03-22T13:09:22.787Z,18.70
2019-03-22T13:11:54.755Z,18.70
2019-03-22T13:14:26.988Z,18.70
2019-03-22T13:16:59.325Z,18.50
2019-03-22T13:19:31.559Z,18.40
2019-03-22T13:22:03.343Z,18.20
2019-03-22T13:24:36.718Z,18.40
2019-03-22T13:27:08.606Z,18.30
2019-03-22T13:29:40.867Z,18.60
2019-03-22T13:32:13.144Z,18.50
2019-03-22T13:34:45.204Z,18.70
2019-03-22T13:37:17.144Z,18.80
2019-03-22T13:39:49.569Z,18.60
2019-03-22T13:42:23.150Z,18.70
2019-03-22T13:44:55.188Z,18.90
2019-03-22T13:47:27.299Z,18.90
2019-03-22T13:49:59.275Z,19.10
2019-03-22T13:52:31.053Z,19.30
2019-03-22T13:55:02.911Z,19.00
2019-03-22T13:57:34.918Z,19.10
2019-03-22T14:00:08.455Z,19.20
2019-03-22T14:02:40.748Z,19.10
2019-03-22T14:05:14.522Z,19.10
2019-03-22T14:07:48.167Z,19.20
2019-03-22T14:10:30.930Z,19.10
2019-03-22T14:13:03.534Z,19.00
2019-03-22T14:15:35.797Z,19.00
2019-03-22T14:18:07.568Z,19.10
2019-03-22T14:20:40.246Z,19.30
2019-03-22T14:23:12.912Z,19.10
2019-03-22T14:25:45.153Z,19.30
2019-03-22T14:28:17.200Z,19.30
2019-03-22T14:30:49.122Z,19.40
2019-03-22T14:33:21.150Z,19.40
2019-03-22T14:35:53.052Z,19.40
2019-03-22T14:38:24.904Z,19.50
2019-03-22T14:40:58.288Z,19.70
2019-03-22T14:43:30.625Z,19.80
2019-03-22T14:46:02.985Z,19.50
2019-03-22T14:48:34.865Z,19.30
2019-03-22T14:51:06.998Z,19.40
2019-03-22T14:53:39.026Z,19.20
2019-03-22T14:56:10.868Z,19.30
2019-03-22T14:58:43.041Z,19.20
2019-03-22T15:01:14.970Z,19.40
2019-03-22T15:03:49.102Z,19.50
2019-03-22T15:06:21.138Z,19.50
2019-03-22T15:08:53.548Z,19.60
2019-03-22T15:11:25.386Z,19.40
2019-03-22T15:14:02.574Z,19.40
2019-03-22T15:16:59.778Z,19.00
2019-03-22T15:20:02.397Z,19.10
2019-03-22T15:22:52.240Z,19.30
2019-03-22T15:25:43.466Z,18.20
2019-03-22T15:28:52.990Z,17.10
2019-03-22T15:31:42.948Z,16.70
2019-03-22T15:34:40.040Z,16.20
2019-03-22T15:37:33.741Z,15.80
2019-03-22T15:40:06.871Z,15.50
2019-03-22T15:42:39.022Z,15.30
2019-03-22T15:45:12.107Z,15.10
2019-03-22T15:47:43.947Z,15.10
2019-03-22T15:50:17.048Z,14.60
2019-03-22T15:52:48.950Z,14.40
2019-03-22T15:55:21.558Z,14.40
2019-03-22T15:57:53.911Z,14.30
2019-03-22T16:00:25.772Z,14.20
2019-03-22T16:02:58.074Z,14.10
2019-03-22T16:05:32.288Z,13.90
2019-03-22T16:08:04.792Z,13.60
2019-03-22T16:10:36.823Z,13.40
2019-03-22T16:13:09.267Z,13.10
2019-03-22T16:15:41.319Z,13.10
2019-03-22T16:18:13.292Z,13.20
2019-03-22T16:20:45.377Z,13.20
2019-03-22T16:23:17.715Z,12.70
2019-03-22T16:25:49.975Z,12.50
2019-03-22T16:28:22.402Z,12.50
2019-03-22T16:30:54.705Z,12.30
2019-03-22T16:33:26.749Z,12.20
2019-03-22T16:35:58.796Z,12.20
2019-03-22T16:38:31.106Z,12.00
2019-03-22T16:41:03.113Z,11.80
2019-03-22T16:43:36.519Z,11.60
2019-03-22T16:46:09.084Z,11.40
2019-03-22T16:48:41.137Z,11.30
2019-03-22T16:51:13.540Z,11.20
2019-03-22T16:53:45.442Z,11.20
2019-03-22T16:56:17.415Z,11.10
2019-03-22T16:58:50.520Z,11.10
2019-03-22T17:01:23.162Z,11.00
2019-03-22T17:04:04.078Z,11.00
2019-03-22T17:06:29.251Z,11.00
2019-03-22T17:09:01.125Z,10.90
2019-03-22T17:11:35.002Z,10.90
2019-03-22T17:14:06.881Z,10.80
2019-03-22T17:16:39.003Z,10.80
2019-03-22T17:19:11.383Z,10.70
2019-03-22T17:21:43.583Z,10.70
2019-03-22T17:24:15.764Z,10.60
2019-03-22T17:26:49.004Z,10.50
2019-03-22T17:29:22.875Z,10.50
2019-03-22T17:31:55.181Z,10.40
2019-03-22T17:34:27.384Z,10.30
2019-03-22T17:37:00.610Z,10.20
2019-03-22T17:39:32.999Z,10.10
2019-03-22T17:42:04.939Z,9.90
2019-03-22T17:44:36.754Z,9.80
2019-03-22T17:47:08.596Z,9.70
2019-03-22T17:49:47.792Z,9.70
2019-03-22T17:52:15.649Z,9.60
2019-03-22T17:54:47.671Z,9.60
2019-03-22T17:57:19.484Z,9.50
2019-03-22T17:59:51.458Z,9.50
2019-03-22T18:02:23.404Z,9.50
2019-03-22T18:04:55.239Z,9.50
2019-03-22T18:07:27.449Z,9.50
2019-03-22T18:10:03.510Z,9.40
2019-03-22T18:12:35.319Z,9.40
2019-03-22T18:15:08.046Z,9.40
2019-03-22T18:17:39.988Z,9.30
2019-03-22T18:20:12.763Z,9.20
2019-03-22T18:22:52.075Z,9.00
2019-03-22T18:25:24.346Z,8.90
2019-03-22T18:27:56.354Z,8.90
2019-03-22T18:30:28.298Z,8.90
2019-03-22T18:33:00.669Z,8.90
2019-03-22T18:35:32.595Z,8.90
2019-03-22T18:38:04.770Z,8.90
2019-03-22T18:40:36.728Z,8.80
2019-03-22T18:43:09.353Z,8.90
2019-03-22T18:45:41.997Z,9.00
2019-03-22T18:48:14.057Z,9.00
2019-03-22T18:50:56.117Z,8.90
2019-03-22T18:53:19.381Z,9.00
2019-03-22T18:55:51.322Z,8.90
2019-03-22T18:58:23.827Z,8.80
2019-03-22T19:00:56.045Z,8.90
2019-03-22T19:03:28.217Z,8.90
2019-03-22T19:06:00.395Z,8.90
2019-03-22T19:08:32.325Z,8.90
2019-03-22T19:11:04.345Z,8.90
2019-03-22T19:13:36.287Z,8.80
2019-03-22T19:16:08.593Z,8.80
2019-03-22T19:18:40.702Z,8.80
2019-03-22T19:21:13.471Z,8.90
2019-03-22T19:23:46.831Z,8.90
2019-03-22T19:26:19.122Z,8.90
2019-03-22T19:28:50.967Z,8.80
2019-03-22T19:31:23.066Z,8.70
2019-03-22T19:33:55.163Z,8.70
2019-03-22T19:36:27.317Z,8.60
2019-03-22T19:38:59.425Z,8.60
2019-03-22T19:41:31.959Z,8.60
2019-03-22T19:44:04.804Z,8.60
2019-03-22T19:46:37.039Z,8.50
2019-03-22T19:49:08.863Z,8.50
2019-03-22T19:51:40.811Z,8.40
2019-03-22T19:54:13.221Z,8.40
2019-03-22T19:56:45.621Z,8.50
2019-03-22T19:59:17.983Z,8.50
2019-03-22T20:01:50.329Z,8.50
2019-03-22T20:04:22.220Z,8.50
2019-03-22T20:06:54.124Z,8.50
2019-03-22T20:09:26.008Z,8.50
2019-03-22T20:11:58.393Z,8.50
2019-03-22T20:14:30.375Z,8.50
2019-03-22T20:17:02.253Z,8.50
2019-03-22T20:19:34.230Z,8.50
2019-03-22T20:22:06.086Z,8.50
2019-03-22T20:24:38.270Z,8.60
2019-03-22T20:27:10.630Z,8.60
2019-03-22T20:29:42.778Z,8.60
2019-03-22T20:32:14.737Z,8.60
2019-03-22T20:34:47.441Z,8.60
2019-03-22T20:37:19.610Z,8.60
2019-03-22T20:39:51.852Z,8.60
2019-03-22T20:42:23.546Z,8.60
2019-03-22T20:44:55.465Z,8.60
2019-03-22T20:47:27.364Z,8.60
2019-03-22T20:49:59.544Z,8.60
2019-03-22T20:52:31.652Z,8.60
2019-03-22T20:55:03.641Z,8.60
2019-03-22T20:57:35.538Z,8.60
2019-03-22T21:00:07.921Z,8.70
2019-03-22T21:02:41.448Z,8.70
2019-03-22T21:05:13.560Z,8.70
2019-03-22T21:07:45.532Z,8.80
2019-03-22T21:10:17.503Z,8.80
2019-03-22T21:12:50.000Z,8.80
2019-03-22T21:15:24.627Z,8.90
2019-03-22T21:17:57.086Z,8.80
2019-03-22T21:20:29.212Z,8.90
2019-03-22T21:23:01.771Z,8.80
2019-03-22T21:25:34.837Z,8.80
2019-03-22T21:28:06.928Z,8.80
2019-03-22T21:30:41.047Z,8.90
2019-03-22T21:33:13.235Z,8.90
2019-03-22T21:35:45.957Z,8.90
2019-03-22T21:38:19.169Z,8.90
2019-03-22T21:40:52.089Z,9.00
2019-03-22T21:43:24.283Z,9.00
2019-03-22T21:45:56.221Z,8.90
2019-03-22T21:48:28.101Z,8.90
2019-03-22T21:51:01.011Z,8.90
2019-03-22T21:53:33.054Z,8.90
2019-03-22T21:56:05.245Z,8.90
2019-03-22T21:58:37.061Z,8.90
2019-03-22T22:01:08.940Z,8.90
2019-03-22T22:03:41.138Z,8.90
2019-03-22T22:06:13.022Z,9.00
2019-03-22T22:08:46.601Z,9.00
2019-03-22T22:11:18.922Z,8.90
2019-03-22T22:13:50.818Z,9.00
2019-03-22T22:16:22.666Z,9.00
2019-03-22T22:18:54.996Z,8.90
2019-03-22T22:21:26.868Z,8.90
2019-03-22T22:23:59.100Z,8.90
2019-03-22T22:26:31.211Z,8.90
2019-03-22T22:29:03.170Z,8.90
2019-03-22T22:31:35.502Z,8.90
2019-03-22T22:34:07.650Z,8.90
2019-03-22T22:36:39.763Z,8.90
2019-03-22T22:39:11.828Z,8.90
2019-03-22T22:41:43.703Z,9.00
2019-03-22T22:44:15.788Z,9.00
2019-03-22T22:46:49.498Z,9.00
2019-03-22T22:49:21.340Z,9.00
2019-03-22T22:51:53.188Z,9.00
2019-03-22T22:54:25.003Z,9.00
2019-03-22T22:56:56.931Z,9.00
2019-03-22T22:59:28.784Z,9.00
2019-03-22T23:02:00.923Z,9.00
2019-03-22T23:04:33.058Z,9.00
2019-03-22T23:07:06.810Z,9.00
2019-03-22T23:09:38.677Z,9.00
2019-03-22T23:12:10.851Z,9.00
2019-03-22T23:14:42.708Z,9.00
2019-03-22T23:17:15.855Z,9.10
2019-03-22T23:19:47.657Z,9.10
2019-03-22T23:22:19.509Z,9.10
2019-03-22T23:24:51.254Z,9.10
2019-03-22T23:27:23.482Z,9.10
2019-03-22T23:29:56.623Z,9.10
2019-03-22T23:32:28.700Z,9.20
2019-03-22T23:35:00.993Z,9.20
2019-03-22T23:37:33.050Z,9.20
2019-03-22T23:40:06.717Z,9.20
2019-03-22T23:42:39.660Z,9.30
2019-03-22T23:45:11.843Z,9.30
2019-03-22T23:47:44.707Z,9.30
2019-03-22T23:50:16.605Z,9.30
2019-03-22T23:52:49.085Z,9.30
2019-03-22T23:55:20.860Z,9.30
2019-03-22T23:57:52.926Z,9.30
